createdAt,value
2016-11-04T00:00:38.171Z,933.48
2016-11-04T00:01:50.017Z,933.5
2016-11-04T00:03:01.055Z,933.57
2016-11-04T00:04:12.885Z,933.58
2016-11-04T00:05:23.532Z,933.6
2016-11-04T00:06:34.177Z,933.59
2016-11-04T00:07:45.763Z,933.63
2016-11-04T00:08:56.825Z,933.58
2016-11-04T00:10:08.258Z,933.61
2016-11-04T00:11:19.909Z,933.62
2016-11-04T00:12:30.929Z,933.63
2016-11-04T00:13:41.987Z,933.62
2016-11-04T00:14:52.661Z,933.64
2016-11-04T00:16:03.700Z,933.63
2016-11-04T00:17:14.726Z,933.59
2016-11-04T00:18:26.154Z,933.58
2016-11-04T00:19:37.708Z,933.59
2016-11-04T00:20:49.135Z,933.56
2016-11-04T00:22:00.234Z,933.49
2016-11-04T00:23:11.657Z,933.49
2016-11-04T00:24:23.125Z,933.47
2016-11-04T00:25:34.143Z,933.43
2016-11-04T00:26:45.589Z,933.45
2016-11-04T00:27:56.613Z,933.45
2016-11-04T00:29:07.270Z,933.47
2016-11-04T00:30:19.811Z,933.51
2016-11-04T00:31:31.233Z,933.54
2016-11-04T00:32:43.087Z,933.56
2016-11-04T00:33:53.722Z,933.54
2016-11-04T00:35:04.825Z,933.51
2016-11-04T00:36:15.892Z,933.48
2016-11-04T00:37:27.058Z,933.48
2016-11-04T00:38:37.692Z,933.5
2016-11-04T00:39:49.178Z,933.5
2016-11-04T00:41:00.180Z,933.44
2016-11-04T00:42:10.829Z,933.41
2016-11-04T00:43:21.938Z,933.36
2016-11-04T00:44:36.420Z,933.37
2016-11-04T00:45:47.421Z,933.26
2016-11-04T00:46:58.854Z,933.26
2016-11-04T00:48:09.879Z,933.23
2016-11-04T00:49:21.346Z,933.19
2016-11-04T00:50:32.751Z,933.14
2016-11-04T00:51:43.774Z,933.16
2016-11-04T00:52:55.198Z,933.14
2016-11-04T00:54:07.550Z,933.23
2016-11-04T00:55:19.560Z,933.21
2016-11-04T00:56:31.425Z,933.26
2016-11-04T00:57:42.144Z,933.25
2016-11-04T00:58:53.574Z,933.22
2016-11-04T01:00:04.195Z,933.28
2016-11-04T01:01:15.784Z,933.34
2016-11-04T01:02:27.705Z,933.36
2016-11-04T01:03:38.731Z,933.41
2016-11-04T01:04:50.318Z,933.41
2016-11-04T01:06:02.116Z,933.42
2016-11-04T01:07:13.600Z,933.39
2016-11-04T01:08:24.659Z,933.41
2016-11-04T01:09:35.728Z,933.39
2016-11-04T01:10:47.135Z,933.32
2016-11-04T01:11:58.171Z,933.28
2016-11-04T01:13:08.906Z,933.2
2016-11-04T01:14:20.433Z,933.1
2016-11-04T01:15:31.466Z,933.13
2016-11-04T01:16:43.807Z,933.1
2016-11-04T01:17:54.906Z,933.1
2016-11-04T01:19:06.102Z,933.23
2016-11-04T01:20:17.124Z,933.29
2016-11-04T01:21:28.197Z,933.31
2016-11-04T01:22:40.021Z,933.37
2016-11-04T01:23:51.489Z,933.34
2016-11-04T01:25:02.488Z,933.32
2016-11-04T01:26:13.509Z,933.35
2016-11-04T01:27:24.963Z,933.32
2016-11-04T01:28:36.015Z,933.36
2016-11-04T01:29:47.079Z,933.38
2016-11-04T01:30:59.160Z,933.4
2016-11-04T01:32:09.822Z,933.41
2016-11-04T01:33:20.446Z,933.44
2016-11-04T01:34:31.516Z,933.45
2016-11-04T01:35:42.565Z,933.46
2016-11-04T01:36:53.720Z,933.46
2016-11-04T01:38:04.801Z,933.48
2016-11-04T01:39:18.921Z,933.49
2016-11-04T01:40:30.347Z,933.5
2016-11-04T01:41:41.350Z,933.51
2016-11-04T01:42:52.924Z,933.52
2016-11-04T01:44:03.947Z,933.53
2016-11-04T01:45:15.358Z,933.6
2016-11-04T01:46:26.021Z,933.61
2016-11-04T01:47:37.107Z,933.67
2016-11-04T01:48:47.783Z,933.7
2016-11-04T01:49:59.297Z,933.72
2016-11-04T01:51:09.946Z,933.8
2016-11-04T01:52:21.021Z,933.78
2016-11-04T01:53:32.089Z,933.82
2016-11-04T01:54:43.299Z,933.88
2016-11-04T01:55:54.399Z,933.91
2016-11-04T01:57:05.508Z,933.9
2016-11-04T01:58:16.564Z,933.95
2016-11-04T01:59:28.394Z,933.91
2016-11-04T02:00:40.299Z,933.92
2016-11-04T02:01:51.347Z,933.83
2016-11-04T02:03:02.832Z,933.79
2016-11-04T02:04:14.660Z,933.77
2016-11-04T02:05:26.180Z,933.68
2016-11-04T02:06:37.265Z,933.6
2016-11-04T02:07:49.058Z,933.59
2016-11-04T02:09:00.871Z,933.57
2016-11-04T02:10:11.551Z,933.61
2016-11-04T02:11:22.586Z,933.63
2016-11-04T02:12:33.748Z,933.66
2016-11-04T02:13:44.826Z,933.59
2016-11-04T02:14:56.668Z,933.57
2016-11-04T02:16:08.122Z,933.53
2016-11-04T02:17:18.747Z,933.39
2016-11-04T02:18:29.951Z,933.31
2016-11-04T02:19:40.566Z,933.24
2016-11-04T02:20:51.655Z,933.16
2016-11-04T02:22:02.352Z,933.09
2016-11-04T02:23:13.409Z,933.09
2016-11-04T02:24:24.820Z,933.04
2016-11-04T02:25:35.853Z,933.02
2016-11-04T02:26:46.521Z,932.96
2016-11-04T02:27:58.006Z,933.02
2016-11-04T02:29:09.086Z,933.03
2016-11-04T02:30:20.155Z,932.98
2016-11-04T02:31:31.223Z,933.07
2016-11-04T02:32:43.026Z,933.07
2016-11-04T02:33:54.471Z,933.07
2016-11-04T02:35:06.328Z,933.08
2016-11-04T02:36:17.280Z,933.08
2016-11-04T02:37:29.294Z,933.04
2016-11-04T02:38:40.303Z,933.11
2016-11-04T02:39:50.987Z,933.07
2016-11-04T02:41:01.987Z,933.07
2016-11-04T02:42:13.668Z,933.07
2016-11-04T02:43:24.271Z,933.04
2016-11-04T02:44:35.288Z,933.05
2016-11-04T02:45:46.337Z,933.13
2016-11-04T02:46:58.188Z,933.09
2016-11-04T02:48:09.595Z,933.07
2016-11-04T02:49:24.482Z,933.08
2016-11-04T02:50:35.147Z,933.01
2016-11-04T02:51:45.758Z,932.99
2016-11-04T02:52:56.759Z,932.98
2016-11-04T02:54:07.417Z,933.06
2016-11-04T02:55:19.311Z,933.08
2016-11-04T02:56:30.734Z,933.08
2016-11-04T02:57:41.880Z,933.16
2016-11-04T02:58:53.017Z,933.12
2016-11-04T03:00:04.236Z,933.09
2016-11-04T03:01:15.281Z,933.11
2016-11-04T03:02:26.851Z,933.09
2016-11-04T03:03:37.486Z,933.04
2016-11-04T03:04:48.941Z,933
2016-11-04T03:06:00.383Z,932.95
2016-11-04T03:07:11.488Z,932.98
2016-11-04T03:08:22.104Z,932.96
2016-11-04T03:09:32.763Z,933.01
2016-11-04T03:10:45.437Z,933.01
2016-11-04T03:11:56.533Z,933
2016-11-04T03:13:07.547Z,932.95
2016-11-04T03:14:18.201Z,932.9
2016-11-04T03:15:29.633Z,932.88
2016-11-04T03:16:41.066Z,932.86
2016-11-04T03:17:52.871Z,932.85
2016-11-04T03:19:04.292Z,932.82
2016-11-04T03:20:16.117Z,932.74
2016-11-04T03:21:27.589Z,932.71
2016-11-04T03:22:38.245Z,932.7
2016-11-04T03:23:49.356Z,932.74
2016-11-04T03:25:00.394Z,932.72
2016-11-04T03:26:11.383Z,932.8
2016-11-04T03:27:23.092Z,932.86
2016-11-04T03:28:34.161Z,932.89
2016-11-04T03:29:45.987Z,932.93
2016-11-04T03:30:57.851Z,932.95
2016-11-04T03:32:08.997Z,933.04
2016-11-04T03:33:19.654Z,932.98
2016-11-04T03:34:30.798Z,933.03
2016-11-04T03:35:41.560Z,933.04
2016-11-04T03:36:53.799Z,933.02
2016-11-04T03:38:04.466Z,933.02
2016-11-04T03:39:16.032Z,932.88
2016-11-04T03:40:27.604Z,932.85
2016-11-04T03:41:39.663Z,932.75
2016-11-04T03:42:50.697Z,932.64
2016-11-04T03:44:01.701Z,932.64
2016-11-04T03:45:13.496Z,932.62
2016-11-04T03:46:24.574Z,932.62
2016-11-04T03:47:36.420Z,932.6
2016-11-04T03:48:47.402Z,932.58
2016-11-04T03:49:59.345Z,932.61
2016-11-04T03:51:10.421Z,932.58
2016-11-04T03:52:21.937Z,932.58
2016-11-04T03:53:34.250Z,932.6
2016-11-04T03:54:45.404Z,932.61
2016-11-04T03:55:56.874Z,932.58
2016-11-04T03:57:08.369Z,932.55
2016-11-04T03:58:19.797Z,932.51
2016-11-04T03:59:31.930Z,932.49
2016-11-04T04:00:43.857Z,932.45
2016-11-04T04:01:54.922Z,932.42
2016-11-04T04:03:05.967Z,932.48
2016-11-04T04:04:16.957Z,932.46
2016-11-04T04:05:27.591Z,932.46
2016-11-04T04:06:38.639Z,932.5
2016-11-04T04:07:50.072Z,932.47
2016-11-04T04:09:00.714Z,932.47
2016-11-04T04:10:11.407Z,932.47
2016-11-04T04:11:22.823Z,932.51
2016-11-04T04:12:33.862Z,932.53
2016-11-04T04:13:44.559Z,932.41
2016-11-04T04:14:55.967Z,932.36
2016-11-04T04:16:07.063Z,932.25
2016-11-04T04:17:18.651Z,932.16
2016-11-04T04:18:30.890Z,932.08
2016-11-04T04:19:42.340Z,932.06
2016-11-04T04:20:54.186Z,932.17
2016-11-04T04:22:04.789Z,932.21
2016-11-04T04:23:16.364Z,932.26
2016-11-04T04:24:27.380Z,932.27
2016-11-04T04:25:38.805Z,932.28
2016-11-04T04:26:50.226Z,932.23
2016-11-04T04:28:01.303Z,932.26
2016-11-04T04:29:12.296Z,932.3
2016-11-04T04:30:23.328Z,932.29
2016-11-04T04:31:34.002Z,932.28
2016-11-04T04:32:44.649Z,932.28
2016-11-04T04:33:55.704Z,932.27
2016-11-04T04:35:06.813Z,932.28
2016-11-04T04:36:17.881Z,932.29
2016-11-04T04:37:29.286Z,932.37
2016-11-04T04:38:40.336Z,932.47
2016-11-04T04:39:51.882Z,932.51
2016-11-04T04:41:02.644Z,932.56
2016-11-04T04:42:13.710Z,932.57
2016-11-04T04:43:24.357Z,932.54
2016-11-04T04:44:35.807Z,932.48
2016-11-04T04:45:47.888Z,932.39
2016-11-04T04:46:58.591Z,932.29
2016-11-04T04:48:10.062Z,932.17
2016-11-04T04:49:21.521Z,932.09
2016-11-04T04:50:32.548Z,932.06
2016-11-04T04:51:43.138Z,932.11
2016-11-04T04:52:54.183Z,932.14
2016-11-04T04:54:04.879Z,932.14
2016-11-04T04:55:16.730Z,932.16
2016-11-04T04:56:27.753Z,932.16
2016-11-04T04:57:39.225Z,932.17
2016-11-04T04:58:50.293Z,932.2
2016-11-04T05:00:01.353Z,932.19
2016-11-04T05:01:13.191Z,932.23
2016-11-04T05:02:24.276Z,932.18
2016-11-04T05:03:36.080Z,932.18
2016-11-04T05:04:46.816Z,932.1
2016-11-04T05:05:58.288Z,932.1
2016-11-04T05:07:09.787Z,932.15
2016-11-04T05:08:21.212Z,932.18
2016-11-04T05:09:32.232Z,932.22
2016-11-04T05:10:43.809Z,932.21
2016-11-04T05:11:54.864Z,932.24
2016-11-04T05:13:05.909Z,932.2
2016-11-04T05:14:16.936Z,932.16
2016-11-04T05:15:28.415Z,932.19
2016-11-04T05:16:39.089Z,932.18
2016-11-04T05:17:50.143Z,932.22
2016-11-04T05:19:01.153Z,932.3
2016-11-04T05:20:12.579Z,932.36
2016-11-04T05:21:24.022Z,932.43
2016-11-04T05:22:35.042Z,932.42
2016-11-04T05:23:46.483Z,932.35
2016-11-04T05:24:58.318Z,932.27
2016-11-04T05:26:09.359Z,932.17
2016-11-04T05:27:20.411Z,932.15
2016-11-04T05:28:31.900Z,932.1
2016-11-04T05:29:42.933Z,932.14
2016-11-04T05:30:54.366Z,932.16
2016-11-04T05:32:05.387Z,932.21
2016-11-04T05:33:17.230Z,932.21
2016-11-04T05:34:28.740Z,932.21
2016-11-04T05:35:39.798Z,932.22
2016-11-04T05:36:50.845Z,932.23
2016-11-04T05:38:01.855Z,932.19
2016-11-04T05:39:12.960Z,932.1
2016-11-04T05:40:23.994Z,932.09
2016-11-04T05:41:35.041Z,932.04
2016-11-04T05:42:46.532Z,932.03
2016-11-04T05:43:57.991Z,932.01
2016-11-04T05:45:09.491Z,932.03
2016-11-04T05:46:20.586Z,932.01
2016-11-04T05:47:34.658Z,932.06
2016-11-04T05:48:45.715Z,932.01
2016-11-04T05:49:56.344Z,932.01
2016-11-04T05:51:10.859Z,932.06
2016-11-04T05:52:22.129Z,932.06
2016-11-04T05:53:33.591Z,932.11
2016-11-04T05:54:44.625Z,932.12
2016-11-04T05:55:55.658Z,932.09
2016-11-04T05:57:06.724Z,932.08
2016-11-04T05:58:17.361Z,932.05
2016-11-04T05:59:29.581Z,932.07
2016-11-04T06:00:40.993Z,932.06
2016-11-04T06:01:51.617Z,932.05
2016-11-04T06:03:02.666Z,932.07
2016-11-04T06:04:13.808Z,932.1
2016-11-04T06:05:24.461Z,932.12
2016-11-04T06:06:35.850Z,932.18
2016-11-04T06:07:46.506Z,932.16
2016-11-04T06:08:57.570Z,932.13
2016-11-04T06:10:09.126Z,932.16
2016-11-04T06:11:20.572Z,932.18
2016-11-04T06:12:31.222Z,932.21
2016-11-04T06:13:42.303Z,932.27
2016-11-04T06:14:53.400Z,932.29
2016-11-04T06:16:04.154Z,932.34
2016-11-04T06:17:16.836Z,932.34
2016-11-04T06:18:28.625Z,932.29
2016-11-04T06:19:39.644Z,932.28
2016-11-04T06:20:51.079Z,932.26
2016-11-04T06:22:02.190Z,932.25
2016-11-04T06:23:13.205Z,932.24
2016-11-04T06:24:24.221Z,932.27
2016-11-04T06:25:35.310Z,932.32
2016-11-04T06:26:46.726Z,932.34
2016-11-04T06:27:58.568Z,932.36
2016-11-04T06:29:09.673Z,932.35
2016-11-04T06:30:20.710Z,932.41
2016-11-04T06:31:32.565Z,932.44
2016-11-04T06:32:43.990Z,932.4
2016-11-04T06:33:55.522Z,932.42
2016-11-04T06:35:06.545Z,932.41
2016-11-04T06:36:18.337Z,932.39
2016-11-04T06:37:29.430Z,932.33
2016-11-04T06:38:40.488Z,932.37
2016-11-04T06:39:52.163Z,932.39
2016-11-04T06:41:03.190Z,932.37
2016-11-04T06:42:15.430Z,932.35
2016-11-04T06:43:26.063Z,932.36
2016-11-04T06:44:36.648Z,932.35
2016-11-04T06:45:48.126Z,932.33
2016-11-04T06:46:59.908Z,932.33
2016-11-04T06:48:11.419Z,932.29
2016-11-04T06:49:22.075Z,932.25
2016-11-04T06:50:33.172Z,932.26
2016-11-04T06:51:43.868Z,932.23
2016-11-04T06:52:55.756Z,932.27
2016-11-04T06:54:07.158Z,932.25
2016-11-04T06:55:18.208Z,932.23
2016-11-04T06:56:29.199Z,932.26
2016-11-04T06:57:40.351Z,932.23
2016-11-04T06:58:51.337Z,932.17
2016-11-04T07:00:02.791Z,932.14
2016-11-04T07:01:14.242Z,932.2
2016-11-04T07:02:25.327Z,932.17
2016-11-04T07:03:36.066Z,932.15
2016-11-04T07:04:46.767Z,932.16
2016-11-04T07:05:58.247Z,932.21
2016-11-04T07:07:08.891Z,932.18
2016-11-04T07:08:19.529Z,932.17
2016-11-04T07:09:30.967Z,932.16
2016-11-04T07:10:42.053Z,932.23
2016-11-04T07:11:52.714Z,932.21
2016-11-04T07:13:04.161Z,932.19
2016-11-04T07:14:15.594Z,932.22
2016-11-04T07:15:27.463Z,932.24
2016-11-04T07:16:38.971Z,932.27
2016-11-04T07:17:50.839Z,932.3
2016-11-04T07:19:01.900Z,932.34
2016-11-04T07:20:12.923Z,932.33
2016-11-04T07:21:23.661Z,932.34
2016-11-04T07:22:34.314Z,932.32
2016-11-04T07:23:46.532Z,932.32
2016-11-04T07:24:57.554Z,932.32
2016-11-04T07:26:08.633Z,932.35
2016-11-04T07:27:19.406Z,932.38
2016-11-04T07:30:44.153Z,932.38
2016-11-04T07:31:55.993Z,932.34
2016-11-04T07:33:07.056Z,932.37
2016-11-04T07:34:18.975Z,932.43
2016-11-04T07:35:30.043Z,932.41
2016-11-04T07:36:41.453Z,932.44
2016-11-04T07:37:53.250Z,932.46
2016-11-04T07:39:04.377Z,932.51
2016-11-04T07:40:15.411Z,932.46
2016-11-04T07:41:26.832Z,932.45
2016-11-04T07:42:38.330Z,932.49
2016-11-04T07:43:49.892Z,932.47
2016-11-04T07:45:01.411Z,932.45
2016-11-04T07:46:12.853Z,932.43
2016-11-04T07:47:23.521Z,932.44
2016-11-04T07:48:34.603Z,932.45
2016-11-04T07:49:46.045Z,932.43
2016-11-04T07:50:56.796Z,932.44
2016-11-04T07:52:08.337Z,932.44
2016-11-04T07:53:19.733Z,932.5
2016-11-04T07:54:31.236Z,932.49
2016-11-04T07:55:43.153Z,932.46
2016-11-04T07:56:54.200Z,932.48
2016-11-04T07:58:05.213Z,932.5
2016-11-04T07:59:16.275Z,932.51
2016-11-04T08:00:27.301Z,932.52
2016-11-04T08:01:38.386Z,932.55
2016-11-04T08:02:49.795Z,932.53
2016-11-04T08:04:00.822Z,932.56
2016-11-04T08:05:11.511Z,932.6
2016-11-04T08:06:22.187Z,932.57
2016-11-04T08:07:33.992Z,932.64
2016-11-04T08:08:44.771Z,932.62
2016-11-04T08:09:56.606Z,932.62
2016-11-04T08:11:08.183Z,932.63
2016-11-04T08:12:19.629Z,932.64
2016-11-04T08:13:30.616Z,932.64
2016-11-04T08:14:41.385Z,932.67
2016-11-04T08:15:51.999Z,932.71
2016-11-04T08:17:03.126Z,932.73
2016-11-04T08:18:13.765Z,932.76
2016-11-04T08:19:25.244Z,932.8
2016-11-04T08:20:36.657Z,932.79
2016-11-04T08:21:47.304Z,932.83
2016-11-04T08:22:58.763Z,932.82
2016-11-04T08:24:10.181Z,932.81
2016-11-04T08:25:21.183Z,932.84
2016-11-04T08:26:33.046Z,932.89
2016-11-04T08:27:43.674Z,932.92
2016-11-04T08:28:54.753Z,932.93
2016-11-04T08:30:06.272Z,932.98
2016-11-04T08:31:17.650Z,932.93
2016-11-04T08:32:29.213Z,932.94
2016-11-04T08:33:41.100Z,932.97
2016-11-04T08:34:52.595Z,932.96
2016-11-04T08:36:04.016Z,932.96
2016-11-04T08:37:15.465Z,932.96
2016-11-04T08:38:27.130Z,932.94
2016-11-04T08:39:38.680Z,932.97
2016-11-04T08:40:49.828Z,932.97
2016-11-04T08:42:01.082Z,933.04
2016-11-04T08:43:12.704Z,933.03
2016-11-04T08:44:23.854Z,933.07
2016-11-04T08:45:34.868Z,933.11
2016-11-04T08:46:46.339Z,933.17
2016-11-04T08:47:57.755Z,933.2
2016-11-04T08:49:08.469Z,933.19
2016-11-04T08:50:19.108Z,933.17
2016-11-04T08:51:31.000Z,933.18
2016-11-04T08:52:42.945Z,933.21
2016-11-04T08:53:53.955Z,933.21
2016-11-04T08:55:04.588Z,933.22
2016-11-04T08:56:15.321Z,933.25
2016-11-04T08:57:26.444Z,933.3
2016-11-04T08:58:37.084Z,933.32
2016-11-04T08:59:47.698Z,933.3
2016-11-04T09:00:59.565Z,933.34
2016-11-04T09:02:10.334Z,933.34
2016-11-04T09:03:21.355Z,933.37
2016-11-04T09:04:33.198Z,933.39
2016-11-04T09:05:44.658Z,933.37
2016-11-04T09:06:56.075Z,933.37
2016-11-04T09:08:08.178Z,933.41
2016-11-04T09:09:19.604Z,933.4
2016-11-04T09:10:31.069Z,933.42
2016-11-04T09:11:42.147Z,933.48
2016-11-04T09:12:53.208Z,933.53
2016-11-04T09:14:04.661Z,933.51
2016-11-04T09:15:15.830Z,933.59
2016-11-04T09:16:26.916Z,933.58
2016-11-04T09:17:37.568Z,933.67
2016-11-04T09:18:48.249Z,933.66
2016-11-04T09:19:59.314Z,933.71
2016-11-04T09:21:10.407Z,933.71
2016-11-04T09:22:21.451Z,933.76
2016-11-04T09:23:32.512Z,933.74
2016-11-04T09:24:43.948Z,933.73
2016-11-04T09:25:55.437Z,933.75
2016-11-04T09:27:06.080Z,933.77
2016-11-04T09:28:18.032Z,933.8
2016-11-04T09:29:29.853Z,933.83
2016-11-04T09:30:41.676Z,933.82
2016-11-04T09:31:53.639Z,933.83
2016-11-04T09:33:04.708Z,933.77
2016-11-04T09:34:15.382Z,933.77
2016-11-04T09:35:26.813Z,933.77
2016-11-04T09:36:37.874Z,933.76
2016-11-04T09:37:48.635Z,933.76
2016-11-04T09:39:00.067Z,933.79
2016-11-04T09:40:10.733Z,933.79
2016-11-04T09:41:21.804Z,933.77
2016-11-04T09:42:33.273Z,933.85
2016-11-04T09:43:45.123Z,933.8
2016-11-04T09:44:56.571Z,933.81
2016-11-04T09:46:07.223Z,933.85
2016-11-04T09:47:18.651Z,933.86
2016-11-04T09:48:30.505Z,933.88
2016-11-04T09:49:42.075Z,933.94
2016-11-04T09:50:55.332Z,933.91
2016-11-04T09:52:06.407Z,933.96
2016-11-04T09:53:17.461Z,933.92
2016-11-04T09:54:29.331Z,933.92
2016-11-04T09:55:40.797Z,933.92
2016-11-04T09:56:51.832Z,933.97
2016-11-04T09:58:03.258Z,933.99
2016-11-04T09:59:15.085Z,934
2016-11-04T10:01:42.953Z,934.04
2016-11-04T10:02:53.623Z,934.04
2016-11-04T10:04:05.034Z,934.03
2016-11-04T10:05:16.149Z,933.99
2016-11-04T10:06:27.586Z,933.96
2016-11-04T10:07:39.031Z,933.97
2016-11-04T10:08:50.050Z,933.99
2016-11-04T10:10:00.728Z,933.98
2016-11-04T10:11:11.779Z,934
2016-11-04T10:12:23.932Z,934.01
2016-11-04T10:13:34.667Z,934.08
2016-11-04T10:14:45.848Z,934.06
2016-11-04T10:15:56.928Z,934.09
2016-11-04T10:17:08.036Z,934.13
2016-11-04T10:18:19.147Z,934.12
2016-11-04T10:19:30.222Z,934.18
2016-11-04T10:20:40.956Z,934.22
2016-11-04T10:21:52.021Z,934.25
2016-11-04T10:23:02.807Z,934.2
2016-11-04T10:24:13.561Z,934.23
2016-11-04T10:25:24.719Z,934.18
2016-11-04T10:26:35.817Z,934.19
2016-11-04T10:27:46.541Z,934.26
2016-11-04T10:28:57.288Z,934.31
2016-11-04T10:30:08.409Z,934.34
2016-11-04T10:31:19.123Z,934.39
2016-11-04T10:32:29.871Z,934.37
2016-11-04T10:33:40.977Z,934.38
2016-11-04T10:34:52.067Z,934.36
2016-11-04T10:36:02.769Z,934.36
2016-11-04T10:37:14.243Z,934.32
2016-11-04T10:38:24.954Z,934.32
2016-11-04T10:39:35.696Z,934.27
2016-11-04T10:40:47.235Z,934.35
2016-11-04T10:41:57.875Z,934.36
2016-11-04T10:43:09.398Z,934.36
2016-11-04T10:44:20.535Z,934.37
2016-11-04T10:45:31.248Z,934.4
2016-11-04T10:46:41.971Z,934.42
2016-11-04T10:47:52.674Z,934.37
2016-11-04T10:49:03.481Z,934.3
2016-11-04T10:50:14.667Z,934.31
2016-11-04T10:51:25.781Z,934.35
2016-11-04T10:52:36.899Z,934.38
2016-11-04T10:53:47.598Z,934.49
2016-11-04T10:54:58.261Z,934.58
2016-11-04T10:56:09.507Z,934.63
2016-11-04T10:57:20.574Z,934.66
2016-11-04T10:58:32.098Z,934.73
2016-11-04T10:59:42.837Z,934.77
2016-11-04T11:00:53.682Z,934.83
2016-11-04T11:02:04.420Z,934.84
2016-11-04T11:03:15.092Z,934.77
2016-11-04T11:04:25.815Z,934.79
2016-11-04T11:05:36.954Z,934.79
2016-11-04T11:06:48.609Z,934.86
2016-11-04T11:08:00.074Z,934.94
2016-11-04T11:09:10.813Z,934.99
2016-11-04T11:10:22.073Z,935.01
2016-11-04T11:11:32.746Z,934.94
2016-11-04T11:12:43.580Z,934.98
2016-11-04T11:13:54.618Z,934.97
2016-11-04T11:15:05.352Z,934.94
2016-11-04T11:16:16.413Z,934.98
2016-11-04T11:17:27.843Z,935.03
2016-11-04T11:18:38.525Z,934.99
2016-11-04T11:19:49.183Z,935.03
2016-11-04T11:21:00.269Z,935.01
2016-11-04T11:22:11.357Z,935.03
2016-11-04T11:23:22.530Z,934.98
2016-11-04T11:24:33.269Z,935.01
2016-11-04T11:25:43.951Z,934.95
2016-11-04T11:26:55.110Z,934.97
2016-11-04T11:28:05.815Z,935.02
2016-11-04T11:29:16.920Z,935.03
2016-11-04T11:30:28.447Z,934.98
2016-11-04T11:31:39.651Z,934.97
2016-11-04T11:32:50.375Z,934.96
2016-11-04T11:34:01.128Z,934.96
2016-11-04T11:35:11.818Z,934.96
2016-11-04T11:36:22.892Z,935.01
2016-11-04T11:37:34.082Z,934.98
2016-11-04T11:38:44.791Z,934.92
2016-11-04T11:39:55.502Z,934.92
2016-11-04T11:41:06.626Z,934.99
2016-11-04T11:42:17.849Z,934.95
2016-11-04T11:43:28.531Z,935
2016-11-04T11:44:39.681Z,935.01
2016-11-04T11:45:50.419Z,935.02
2016-11-04T11:47:01.464Z,934.96
2016-11-04T11:48:12.627Z,935
2016-11-04T11:49:23.699Z,934.99
2016-11-04T11:50:34.761Z,935
2016-11-04T11:51:45.455Z,934.96
2016-11-04T11:52:56.142Z,935
2016-11-04T11:54:07.274Z,934.98
2016-11-04T11:55:17.934Z,935.11
2016-11-04T11:56:29.122Z,935.14
2016-11-04T11:57:39.871Z,935.17
2016-11-04T11:58:50.588Z,935.19
2016-11-04T12:00:01.823Z,935.18
2016-11-04T12:01:12.987Z,935.18
2016-11-04T12:02:24.861Z,935.21
2016-11-04T12:03:36.761Z,935.17
2016-11-04T12:04:47.858Z,935.22
2016-11-04T12:05:58.557Z,935.3
2016-11-04T12:07:09.329Z,935.27
2016-11-04T12:08:20.067Z,935.29
2016-11-04T12:09:31.593Z,935.29
2016-11-04T12:10:43.249Z,935.36
2016-11-04T12:11:54.836Z,935.38
2016-11-04T12:13:05.513Z,935.43
2016-11-04T12:14:17.053Z,935.41
2016-11-04T12:15:27.772Z,935.43
2016-11-04T12:16:38.445Z,935.38
2016-11-04T12:17:49.263Z,935.44
2016-11-04T12:19:00.694Z,935.51
2016-11-04T12:20:11.377Z,935.51
2016-11-04T12:21:22.574Z,935.52
2016-11-04T12:22:33.268Z,935.56
2016-11-04T12:23:44.467Z,935.63
2016-11-04T12:24:55.531Z,935.76
2016-11-04T12:26:06.276Z,935.7
2016-11-04T12:27:16.988Z,935.74
2016-11-04T12:28:28.328Z,935.77
2016-11-04T12:29:39.204Z,935.67
2016-11-04T12:30:50.690Z,935.54
2016-11-04T12:32:01.340Z,935.64
2016-11-04T12:33:12.141Z,935.72
2016-11-04T12:34:22.854Z,935.75
2016-11-04T12:35:33.660Z,935.78
2016-11-04T12:36:44.360Z,935.79
2016-11-04T12:37:55.119Z,935.66
2016-11-04T12:39:05.862Z,935.64
2016-11-04T12:40:16.921Z,935.65
2016-11-04T12:41:28.325Z,935.57
2016-11-04T12:42:39.026Z,935.58
2016-11-04T12:43:50.534Z,935.54
2016-11-04T12:45:01.805Z,935.52
2016-11-04T12:46:13.375Z,935.53
2016-11-04T12:47:24.912Z,935.57
2016-11-04T12:48:35.972Z,935.56
2016-11-04T12:49:47.039Z,935.61
2016-11-04T12:50:58.144Z,935.63
2016-11-04T12:52:08.940Z,935.68
2016-11-04T12:53:19.753Z,935.62
2016-11-04T12:54:31.251Z,935.55
2016-11-04T12:55:42.744Z,935.6
2016-11-04T12:56:54.239Z,935.68
2016-11-04T12:58:05.340Z,935.72
2016-11-04T12:59:16.526Z,935.66
2016-11-04T13:00:27.761Z,935.67
2016-11-04T13:01:38.438Z,935.67
2016-11-04T13:02:49.184Z,935.72
2016-11-04T13:03:59.930Z,935.77
2016-11-04T13:05:11.211Z,935.78
2016-11-04T13:06:21.919Z,935.89
2016-11-04T13:07:32.660Z,935.86
2016-11-04T13:08:44.275Z,935.69
2016-11-04T13:09:55.344Z,935.7
2016-11-04T13:11:06.052Z,935.77
2016-11-04T13:12:16.768Z,935.62
2016-11-04T13:13:27.489Z,935.63
2016-11-04T13:14:38.240Z,935.67
2016-11-04T13:15:49.674Z,935.67
2016-11-04T13:18:39.193Z,935.69
2016-11-04T13:19:50.300Z,935.79
2016-11-04T13:21:01.031Z,935.8
2016-11-04T13:22:12.497Z,935.7
2016-11-04T13:23:23.281Z,935.74
2016-11-04T13:24:34.127Z,935.81
2016-11-04T13:25:44.803Z,935.87
2016-11-04T13:26:55.500Z,935.92
2016-11-04T13:28:06.172Z,935.88
2016-11-04T13:29:17.253Z,935.95
2016-11-04T13:30:28.726Z,936.02
2016-11-04T13:31:39.880Z,936.1
2016-11-04T13:32:50.588Z,936.37
2016-11-04T13:34:01.206Z,936.45
2016-11-04T13:35:12.346Z,936.37
2016-11-04T13:36:33.347Z,936.38
2016-11-04T13:37:44.180Z,936.43
2016-11-04T13:38:55.435Z,936.34
2016-11-04T13:40:07.631Z,936.17
2016-11-04T13:41:18.252Z,936.14
2016-11-04T13:42:29.091Z,936.37
2016-11-04T13:43:39.860Z,936.42
2016-11-04T13:44:51.128Z,936.49
2016-11-04T13:46:02.201Z,936.38
2016-11-04T13:47:12.924Z,936.66
2016-11-04T13:48:23.782Z,936.84
2016-11-04T13:49:34.906Z,936.63
2016-11-04T13:50:45.564Z,936.5
2016-11-04T13:51:56.682Z,936.52
2016-11-04T13:53:07.413Z,936.54
2016-11-04T13:54:18.106Z,936.49
2016-11-04T13:55:28.859Z,936.22
2016-11-04T13:56:39.925Z,936.3
2016-11-04T13:57:51.016Z,936.26
2016-11-04T13:59:01.752Z,936.06
2016-11-04T14:00:12.605Z,935.89
2016-11-04T14:01:24.207Z,935.78
2016-11-04T14:02:34.988Z,935.87
2016-11-04T14:03:45.746Z,935.75
2016-11-04T14:04:56.514Z,935.56
2016-11-04T14:06:07.592Z,935.61
2016-11-04T14:07:18.323Z,935.58
2016-11-04T14:08:29.004Z,935.64
2016-11-04T14:09:40.090Z,935.82
2016-11-04T14:10:51.163Z,935.84
2016-11-04T14:12:02.385Z,935.77
2016-11-04T14:13:13.474Z,935.83
2016-11-04T14:14:24.587Z,935.78
2016-11-04T14:15:35.758Z,935.75
2016-11-04T14:16:46.790Z,935.67
2016-11-04T14:17:57.925Z,935.64
2016-11-04T14:19:09.086Z,935.65
2016-11-04T14:20:20.288Z,935.6
2016-11-04T14:21:31.058Z,935.7
2016-11-04T14:22:41.695Z,935.63
2016-11-04T14:23:52.920Z,935.57
2016-11-04T14:25:03.644Z,935.55
2016-11-04T14:26:14.414Z,935.6
2016-11-04T14:27:25.513Z,935.65
2016-11-04T14:28:36.232Z,935.68
2016-11-04T14:29:47.066Z,935.58
2016-11-04T14:30:58.114Z,935.57
2016-11-04T14:32:09.155Z,935.56
2016-11-04T14:33:19.878Z,935.6
2016-11-04T14:34:31.337Z,935.66
2016-11-04T14:35:42.120Z,935.74
2016-11-04T14:36:52.835Z,935.82
2016-11-04T14:38:03.858Z,935.86
2016-11-04T14:39:14.557Z,935.76
2016-11-04T14:40:25.666Z,935.79
2016-11-04T14:41:36.487Z,935.77
2016-11-04T14:42:47.138Z,935.94
2016-11-04T14:43:58.196Z,935.9
2016-11-04T14:45:08.876Z,935.86
2016-11-04T14:46:19.543Z,935.85
2016-11-04T14:47:30.300Z,936.13
2016-11-04T14:48:42.189Z,936.14
2016-11-04T14:49:53.364Z,936.12
2016-11-04T14:51:04.840Z,935.9
2016-11-04T14:52:15.522Z,935.89
2016-11-04T14:53:26.221Z,935.89
2016-11-04T14:54:36.908Z,935.91
2016-11-04T14:55:47.612Z,935.9
2016-11-04T14:56:58.365Z,935.82